createdAt,value
2018-06-13T00:00:46.807Z,21.59
2018-06-13T00:01:46.968Z,21.6
2018-06-13T00:02:46.821Z,21.59
2018-06-13T00:03:46.863Z,21.6
2018-06-13T00:04:46.879Z,21.59
2018-06-13T00:05:46.869Z,21.59
2018-06-13T00:06:47.011Z,21.6
2018-06-13T00:07:46.934Z,21.59
2018-06-13T00:08:46.892Z,21.58
2018-06-13T00:09:46.746Z,21.59
2018-06-13T00:10:46.907Z,21.59
2018-06-13T00:11:46.905Z,21.59
2018-06-13T00:12:46.969Z,21.59
2018-06-13T00:13:46.931Z,21.58
2018-06-13T00:14:46.912Z,21.59
2018-06-13T00:15:46.943Z,21.58
2018-06-13T00:16:47.069Z,21.58
2018-06-13T00:17:46.966Z,21.58
2018-06-13T00:18:46.704Z,21.58
2018-06-13T00:19:46.882Z,21.58
2018-06-13T00:20:46.990Z,21.58
2018-06-13T00:21:46.957Z,21.58
2018-06-13T00:22:46.940Z,21.58
2018-06-13T00:23:46.831Z,21.57
2018-06-13T00:24:46.949Z,21.58
2018-06-13T00:25:46.903Z,21.58
2018-06-13T00:26:46.963Z,21.58
2018-06-13T00:27:46.731Z,21.57
2018-06-13T00:28:46.865Z,21.58
2018-06-13T00:29:46.894Z,21.57
2018-06-13T00:30:46.972Z,21.57
2018-06-13T00:31:46.808Z,21.57
2018-06-13T00:32:46.971Z,21.57
2018-06-13T00:33:46.769Z,21.57
2018-06-13T00:34:47.108Z,21.58
2018-06-13T00:35:46.940Z,21.57
2018-06-13T00:36:46.753Z,21.58
2018-06-13T00:37:47.051Z,21.57
2018-06-13T00:38:46.957Z,21.57
2018-06-13T00:39:46.889Z,21.57
2018-06-13T00:40:46.867Z,21.56
2018-06-13T00:41:46.960Z,21.56
2018-06-13T00:42:47.025Z,21.57
2018-06-13T00:43:47.052Z,21.57
2018-06-13T00:44:47.137Z,21.56
2018-06-13T00:45:46.654Z,21.57
2018-06-13T00:46:47.025Z,21.56
2018-06-13T00:47:46.762Z,21.57
2018-06-13T00:48:46.867Z,21.57
2018-06-13T00:49:46.996Z,21.57
2018-06-13T00:50:46.908Z,21.56
2018-06-13T00:51:46.832Z,21.57
2018-06-13T00:52:47.002Z,21.56
2018-06-13T00:53:46.792Z,21.56
2018-06-13T00:54:46.762Z,21.57
2018-06-13T00:55:46.979Z,21.56
2018-06-13T00:56:46.952Z,21.56
2018-06-13T00:57:46.869Z,21.56
2018-06-13T00:58:46.808Z,21.56
2018-06-13T00:59:46.868Z,21.55
2018-06-13T01:00:46.772Z,21.56
2018-06-13T01:01:46.805Z,21.56
2018-06-13T01:02:46.822Z,21.55
2018-06-13T01:03:46.707Z,21.56
2018-06-13T01:04:46.881Z,21.56
2018-06-13T01:05:46.892Z,21.55
2018-06-13T01:06:46.965Z,21.55
2018-06-13T01:07:46.819Z,21.55
2018-06-13T01:08:46.781Z,21.55
2018-06-13T01:09:46.877Z,21.56
2018-06-13T01:10:46.920Z,21.55
2018-06-13T01:11:46.809Z,21.55
2018-06-13T01:12:46.825Z,21.55
2018-06-13T01:13:47.014Z,21.55
2018-06-13T01:14:46.882Z,21.54
2018-06-13T01:15:46.894Z,21.55
2018-06-13T01:16:47.033Z,21.55
2018-06-13T01:17:46.942Z,21.55
2018-06-13T01:18:46.923Z,21.55
2018-06-13T01:19:46.861Z,21.55
2018-06-13T01:20:46.975Z,21.54
2018-06-13T01:21:46.692Z,21.55
2018-06-13T01:22:46.888Z,21.55
2018-06-13T01:23:46.832Z,21.55
2018-06-13T01:24:46.819Z,21.55
2018-06-13T01:25:47.129Z,21.55
2018-06-13T01:26:46.914Z,21.54
2018-06-13T01:27:46.871Z,21.55
2018-06-13T01:28:46.929Z,21.55
2018-06-13T01:29:46.830Z,21.54
2018-06-13T01:30:46.780Z,21.54
2018-06-13T01:31:46.770Z,21.55
2018-06-13T01:32:47.032Z,21.54
2018-06-13T01:33:46.896Z,21.54
2018-06-13T01:34:46.966Z,21.54
2018-06-13T01:35:46.945Z,21.54
2018-06-13T01:36:46.784Z,21.54
2018-06-13T01:37:46.915Z,21.54
2018-06-13T01:38:46.763Z,21.54
2018-06-13T01:39:46.857Z,21.54
2018-06-13T01:40:46.905Z,21.54
2018-06-13T01:41:46.841Z,21.54
2018-06-13T01:42:46.935Z,21.54
2018-06-13T01:43:47.026Z,21.54
2018-06-13T01:44:46.952Z,21.54
2018-06-13T01:45:46.816Z,21.54
2018-06-13T01:46:46.815Z,21.54
2018-06-13T01:47:46.940Z,21.54
2018-06-13T01:48:46.709Z,21.54
2018-06-13T01:49:46.956Z,21.54
2018-06-13T01:50:47.055Z,21.54
2018-06-13T01:51:46.709Z,21.54
2018-06-13T01:52:46.876Z,21.54
2018-06-13T01:53:46.888Z,21.54
2018-06-13T01:54:46.969Z,21.54
2018-06-13T01:55:46.839Z,21.54
2018-06-13T01:56:46.794Z,21.53
2018-06-13T01:57:46.670Z,21.54
2018-06-13T01:58:46.966Z,21.54
2018-06-13T01:59:46.809Z,21.54
2018-06-13T02:00:46.892Z,21.53
2018-06-13T02:01:46.824Z,21.54
2018-06-13T02:02:46.918Z,21.54
2018-06-13T02:03:46.796Z,21.54
2018-06-13T02:04:46.987Z,21.53
2018-06-13T02:05:46.904Z,21.53
2018-06-13T02:06:46.588Z,21.53
2018-06-13T02:07:46.771Z,21.53
2018-06-13T02:08:46.900Z,21.53
2018-06-13T02:09:46.889Z,21.53
2018-06-13T02:10:46.786Z,21.54
2018-06-13T02:11:46.791Z,21.53
2018-06-13T02:12:46.929Z,21.53
2018-06-13T02:13:46.898Z,21.53
2018-06-13T02:14:46.895Z,21.52
2018-06-13T02:15:46.669Z,21.53
2018-06-13T02:16:47.119Z,21.52
2018-06-13T02:17:46.827Z,21.52
2018-06-13T02:18:47.006Z,21.53
2018-06-13T02:19:46.986Z,21.53
2018-06-13T02:20:46.815Z,21.52
2018-06-13T02:21:46.911Z,21.52
2018-06-13T02:22:47.029Z,21.53
2018-06-13T02:23:46.828Z,21.52
2018-06-13T02:24:46.688Z,21.52
2018-06-13T02:25:47.257Z,21.52
2018-06-13T02:26:46.781Z,21.52
2018-06-13T02:27:46.797Z,21.52
2018-06-13T02:28:46.945Z,21.52
2018-06-13T02:29:46.790Z,21.52
2018-06-13T02:30:46.897Z,21.52
2018-06-13T02:31:46.887Z,21.52
2018-06-13T02:32:46.869Z,21.52
2018-06-13T02:33:46.947Z,21.52
2018-06-13T02:34:46.998Z,21.52
2018-06-13T02:35:46.897Z,21.51
2018-06-13T02:36:46.727Z,21.51
2018-06-13T02:37:46.957Z,21.51
2018-06-13T02:38:46.937Z,21.5
2018-06-13T02:39:46.796Z,21.52
2018-06-13T02:40:46.895Z,21.51
2018-06-13T02:41:46.753Z,21.51
2018-06-13T02:42:46.725Z,21.52
2018-06-13T02:43:46.723Z,21.51
2018-06-13T02:44:46.746Z,21.51
2018-06-13T02:45:46.813Z,21.51
2018-06-13T02:46:46.843Z,21.51
2018-06-13T02:47:46.818Z,21.51
2018-06-13T02:48:46.927Z,21.51
2018-06-13T02:49:46.910Z,21.51
2018-06-13T02:50:46.825Z,21.5
2018-06-13T02:51:46.685Z,21.51
2018-06-13T02:52:47.049Z,21.51
2018-06-13T02:53:46.739Z,21.5
2018-06-13T02:54:46.823Z,21.5
2018-06-13T02:55:46.928Z,21.51
2018-06-13T02:56:46.937Z,21.5
2018-06-13T02:57:46.770Z,21.5
2018-06-13T02:58:46.792Z,21.51
2018-06-13T02:59:46.817Z,21.5
2018-06-13T03:00:46.745Z,21.5
2018-06-13T03:01:46.816Z,21.5
2018-06-13T03:02:46.814Z,21.5
2018-06-13T03:03:46.941Z,21.5
2018-06-13T03:04:46.752Z,21.5
2018-06-13T03:05:46.930Z,21.5
2018-06-13T03:06:46.913Z,21.5
2018-06-13T03:07:46.967Z,21.5
2018-06-13T03:08:46.691Z,21.5
2018-06-13T03:09:46.723Z,21.49
2018-06-13T03:10:46.774Z,21.49
2018-06-13T03:11:46.922Z,21.49
2018-06-13T03:12:46.798Z,21.49
2018-06-13T03:13:46.869Z,21.49
2018-06-13T03:14:46.859Z,21.49
2018-06-13T03:15:46.745Z,21.5
2018-06-13T03:16:46.907Z,21.5
2018-06-13T03:17:46.803Z,21.49
2018-06-13T03:18:46.707Z,21.49
2018-06-13T03:19:46.814Z,21.49
2018-06-13T03:20:47.011Z,21.49
2018-06-13T03:21:46.912Z,21.49
2018-06-13T03:22:46.874Z,21.49
2018-06-13T03:23:46.850Z,21.49
2018-06-13T03:24:46.753Z,21.49
2018-06-13T03:25:46.918Z,21.49
2018-06-13T03:26:46.865Z,21.49
2018-06-13T03:27:46.750Z,21.49
2018-06-13T03:28:46.906Z,21.48
2018-06-13T03:29:46.834Z,21.48
2018-06-13T03:30:46.957Z,21.48
2018-06-13T03:31:46.940Z,21.48
2018-06-13T03:32:46.957Z,21.48
2018-06-13T03:33:46.925Z,21.48
2018-06-13T03:34:46.937Z,21.49
2018-06-13T03:35:47.128Z,21.48
2018-06-13T03:36:46.717Z,21.48
2018-06-13T03:37:46.771Z,21.48
2018-06-13T03:38:47.038Z,21.48
2018-06-13T03:39:46.921Z,21.48
2018-06-13T03:40:46.856Z,21.48
2018-06-13T03:41:46.853Z,21.48
2018-06-13T03:42:46.741Z,21.48
2018-06-13T03:43:46.882Z,21.48
2018-06-13T03:44:47.001Z,21.48
2018-06-13T03:45:46.725Z,21.48
2018-06-13T03:46:46.742Z,21.48
2018-06-13T03:47:46.965Z,21.48
2018-06-13T03:48:46.791Z,21.48
2018-06-13T03:49:46.884Z,21.48
2018-06-13T03:50:46.731Z,21.48
2018-06-13T03:51:46.921Z,21.48
2018-06-13T03:52:46.928Z,21.48
2018-06-13T03:53:47.035Z,21.48
2018-06-13T03:54:46.718Z,21.48
2018-06-13T03:55:46.954Z,21.48
2018-06-13T03:56:47.155Z,21.48
2018-06-13T03:57:47.093Z,21.48
2018-06-13T03:58:46.880Z,21.48
2018-06-13T03:59:46.687Z,21.48
2018-06-13T04:00:46.895Z,21.46
2018-06-13T04:01:47.239Z,21.48
2018-06-13T04:02:46.786Z,21.47
2018-06-13T04:03:46.798Z,21.47
2018-06-13T04:04:46.766Z,21.46
2018-06-13T04:05:46.892Z,21.46
2018-06-13T04:06:46.841Z,21.47
2018-06-13T04:07:46.841Z,21.47
2018-06-13T04:08:46.775Z,21.47
2018-06-13T04:09:46.742Z,21.47
2018-06-13T04:10:46.819Z,21.47
2018-06-13T04:11:46.678Z,21.47
2018-06-13T04:12:46.766Z,21.47
2018-06-13T04:13:47.146Z,21.47
2018-06-13T04:14:46.659Z,21.47
2018-06-13T04:15:46.701Z,21.47
2018-06-13T04:16:46.784Z,21.47
2018-06-13T04:17:46.736Z,21.47
2018-06-13T04:18:46.862Z,21.47
2018-06-13T04:19:46.734Z,21.47
2018-06-13T04:20:46.654Z,21.47
2018-06-13T04:21:46.940Z,21.47
2018-06-13T04:22:46.770Z,21.47
2018-06-13T04:23:46.886Z,21.47
2018-06-13T04:24:46.793Z,21.47
2018-06-13T04:25:46.956Z,21.48
2018-06-13T04:26:46.673Z,21.47
2018-06-13T04:27:46.821Z,21.47
2018-06-13T04:28:46.744Z,21.47
2018-06-13T04:29:46.684Z,21.46
2018-06-13T04:30:46.839Z,21.47
2018-06-13T04:31:46.695Z,21.46
2018-06-13T04:32:46.847Z,21.46
2018-06-13T04:33:46.744Z,21.46
2018-06-13T04:34:46.825Z,21.47
2018-06-13T04:35:47.149Z,21.46
2018-06-13T04:36:46.926Z,21.47
2018-06-13T04:37:46.875Z,21.47
2018-06-13T04:38:46.781Z,21.47
2018-06-13T04:39:46.771Z,21.47
2018-06-13T04:40:46.720Z,21.47
2018-06-13T04:41:46.911Z,21.46
2018-06-13T04:42:46.889Z,21.46
2018-06-13T04:43:46.966Z,21.47
2018-06-13T04:44:46.931Z,21.46
2018-06-13T04:45:46.832Z,21.46
2018-06-13T04:46:46.907Z,21.46
2018-06-13T04:47:46.660Z,21.46
2018-06-13T04:48:46.822Z,21.47
2018-06-13T04:49:46.947Z,21.46
2018-06-13T04:50:46.891Z,21.46
2018-06-13T04:51:46.909Z,21.46
2018-06-13T04:52:46.735Z,21.46
2018-06-13T04:53:46.810Z,21.46
2018-06-13T04:54:46.898Z,21.46
2018-06-13T04:55:46.889Z,21.46
2018-06-13T04:56:46.734Z,21.46
2018-06-13T04:57:46.961Z,21.46
2018-06-13T04:58:47.041Z,21.46
2018-06-13T04:59:46.851Z,21.46
2018-06-13T05:00:46.806Z,21.46
2018-06-13T05:01:46.939Z,21.46
2018-06-13T05:02:47.081Z,21.46
2018-06-13T05:03:46.769Z,21.46
2018-06-13T05:04:46.967Z,21.46
2018-06-13T05:05:46.734Z,21.46
2018-06-13T05:06:46.881Z,21.46
2018-06-13T05:07:46.830Z,21.46
2018-06-13T05:08:46.695Z,21.45
2018-06-13T05:09:46.819Z,21.46
2018-06-13T05:10:46.895Z,21.45
2018-06-13T05:11:46.872Z,21.46
2018-06-13T05:12:46.870Z,21.46
2018-06-13T05:13:46.838Z,21.46
2018-06-13T05:14:46.894Z,21.45
2018-06-13T05:15:46.865Z,21.46
2018-06-13T05:16:46.814Z,21.45
2018-06-13T05:17:46.968Z,21.45
2018-06-13T05:18:46.998Z,21.46
2018-06-13T05:19:46.904Z,21.45
2018-06-13T05:20:46.901Z,21.45
2018-06-13T05:21:46.926Z,21.45
2018-06-13T05:22:46.803Z,21.46
2018-06-13T05:23:46.845Z,21.45
2018-06-13T05:24:46.817Z,21.46
2018-06-13T05:25:46.775Z,21.46
2018-06-13T05:26:46.734Z,21.45
2018-06-13T05:27:46.924Z,21.45
2018-06-13T05:28:46.875Z,21.45
2018-06-13T05:29:46.792Z,21.45
2018-06-13T05:30:46.941Z,21.45
2018-06-13T05:31:46.929Z,21.45
2018-06-13T05:32:46.875Z,21.45
2018-06-13T05:33:46.855Z,21.45
2018-06-13T05:34:46.775Z,21.46
2018-06-13T05:35:46.912Z,21.45
2018-06-13T05:36:46.904Z,21.45
2018-06-13T05:37:46.829Z,21.45
2018-06-13T05:38:46.795Z,21.45
2018-06-13T05:39:46.828Z,21.45
2018-06-13T05:40:46.714Z,21.45
2018-06-13T05:41:46.846Z,21.44
2018-06-13T05:42:46.899Z,21.44
2018-06-13T05:43:47.066Z,21.45
2018-06-13T05:44:46.812Z,21.44
2018-06-13T05:45:46.845Z,21.44
2018-06-13T05:46:46.780Z,21.45
2018-06-13T05:47:46.641Z,21.44
2018-06-13T05:48:46.862Z,21.44
2018-06-13T05:49:46.776Z,21.44
2018-06-13T05:50:46.748Z,21.44
2018-06-13T05:51:46.845Z,21.45
2018-06-13T05:52:46.688Z,21.45
2018-06-13T05:53:46.793Z,21.45
2018-06-13T05:54:46.778Z,21.45
2018-06-13T05:55:46.870Z,21.45
2018-06-13T05:56:46.936Z,21.45
2018-06-13T05:57:46.880Z,21.45
2018-06-13T05:58:46.813Z,21.44
2018-06-13T05:59:46.752Z,21.44
2018-06-13T06:00:46.703Z,21.44
2018-06-13T06:01:56.917Z,21.44
2018-06-13T06:02:47.157Z,21.44
2018-06-13T06:03:46.824Z,21.44
2018-06-13T06:04:46.725Z,21.44
2018-06-13T06:05:46.756Z,21.44
2018-06-13T06:06:46.779Z,21.44
2018-06-13T06:07:46.930Z,21.44
2018-06-13T06:08:46.681Z,21.44
2018-06-13T06:09:46.966Z,21.44
2018-06-13T06:10:46.823Z,21.44
2018-06-13T06:11:46.763Z,21.43
2018-06-13T06:12:47.036Z,21.4
2018-06-13T06:13:46.743Z,21.28
2018-06-13T06:14:46.797Z,21.24
2018-06-13T06:15:46.733Z,21.15
2018-06-13T06:16:46.800Z,21.06
2018-06-13T06:17:46.821Z,21
2018-06-13T06:18:46.822Z,20.94
2018-06-13T06:19:46.863Z,20.78
2018-06-13T06:20:46.810Z,20.77
2018-06-13T06:21:46.874Z,20.77
2018-06-13T06:22:46.677Z,20.78
2018-06-13T06:23:46.840Z,20.8
2018-06-13T06:24:46.691Z,20.81
2018-06-13T06:25:46.710Z,20.77
2018-06-13T06:26:46.762Z,20.74
2018-06-13T06:27:46.755Z,20.72
2018-06-13T06:28:48.204Z,20.72
2018-06-13T06:29:46.793Z,20.72
2018-06-13T06:30:46.724Z,20.74
2018-06-13T06:31:46.724Z,20.74
2018-06-13T06:32:46.893Z,20.73
2018-06-13T06:33:46.705Z,20.73
2018-06-13T06:34:46.660Z,20.72
2018-06-13T06:35:46.827Z,20.73
2018-06-13T06:36:46.977Z,20.71
2018-06-13T06:37:46.961Z,20.68
2018-06-13T06:38:46.871Z,20.66
2018-06-13T06:39:46.875Z,20.67
2018-06-13T06:40:46.850Z,20.67
2018-06-13T06:41:46.919Z,20.66
2018-06-13T06:42:46.685Z,20.62
2018-06-13T06:43:46.930Z,20.65
2018-06-13T06:44:46.846Z,20.68
2018-06-13T06:45:46.756Z,20.72
2018-06-13T06:46:46.564Z,20.75
2018-06-13T06:47:46.856Z,20.78
2018-06-13T06:48:46.873Z,20.82
2018-06-13T06:49:46.753Z,20.84
2018-06-13T06:50:46.690Z,20.86
2018-06-13T06:51:46.618Z,20.89
2018-06-13T06:52:46.784Z,20.93
2018-06-13T06:53:46.785Z,20.95
2018-06-13T06:54:46.877Z,20.95
2018-06-13T06:55:46.723Z,20.97
2018-06-13T06:56:46.766Z,20.99
2018-06-13T06:57:46.812Z,21
2018-06-13T06:58:46.720Z,21.01
2018-06-13T06:59:46.844Z,21.01
2018-06-13T07:00:46.751Z,21.01
2018-06-13T07:01:46.916Z,21.04
2018-06-13T07:02:47.321Z,21.05
2018-06-13T07:03:46.871Z,21.07
2018-06-13T07:04:46.873Z,21.08
2018-06-13T07:05:46.756Z,21.1
2018-06-13T07:06:46.960Z,21.12
2018-06-13T07:07:46.856Z,21.13
2018-06-13T07:08:46.908Z,21.13
2018-06-13T07:09:46.672Z,21.13
2018-06-13T07:10:46.777Z,21.15
2018-06-13T07:11:46.737Z,21.16
2018-06-13T07:12:46.887Z,21.17
2018-06-13T07:13:46.826Z,21.18
2018-06-13T07:14:46.854Z,21.18
2018-06-13T07:15:46.882Z,21.19
2018-06-13T07:16:46.751Z,21.18
2018-06-13T07:17:46.812Z,21.18
2018-06-13T07:18:46.825Z,21.19
2018-06-13T07:19:46.764Z,21.2
2018-06-13T07:20:47.011Z,21.21
2018-06-13T07:21:46.726Z,21.21
2018-06-13T07:22:46.741Z,21.22
2018-06-13T07:23:46.747Z,21.23
2018-06-13T07:24:47.018Z,21.24
2018-06-13T07:25:46.908Z,21.24
2018-06-13T07:26:46.924Z,21.24
2018-06-13T07:27:46.658Z,21.25
2018-06-13T07:28:46.872Z,21.26
2018-06-13T07:29:46.698Z,21.26
2018-06-13T07:30:46.628Z,21.27
2018-06-13T07:31:46.801Z,21.27
2018-06-13T07:32:46.768Z,21.28
2018-06-13T07:33:46.862Z,21.29
2018-06-13T07:34:46.953Z,21.29
2018-06-13T07:35:46.848Z,21.29
2018-06-13T07:36:46.727Z,21.3
2018-06-13T07:37:46.792Z,21.3
2018-06-13T07:38:46.626Z,21.3
2018-06-13T07:39:46.999Z,21.31
2018-06-13T07:40:46.865Z,21.31
2018-06-13T07:41:46.713Z,21.31
2018-06-13T07:42:46.606Z,21.32
2018-06-13T07:43:46.785Z,21.32
2018-06-13T07:44:46.795Z,21.32
2018-06-13T07:45:46.890Z,21.32
2018-06-13T07:46:46.933Z,21.32
2018-06-13T07:48:01.135Z,21.32
2018-06-13T07:48:46.687Z,21.33
2018-06-13T07:49:47.479Z,21.33
2018-06-13T07:50:46.838Z,21.33
2018-06-13T07:51:46.802Z,21.34
2018-06-13T07:52:46.554Z,21.34
2018-06-13T07:53:46.581Z,21.36
2018-06-13T07:54:46.631Z,21.36
2018-06-13T07:55:46.820Z,21.36
2018-06-13T07:56:46.672Z,21.36
2018-06-13T07:57:46.736Z,21.36
2018-06-13T07:58:46.780Z,21.38
2018-06-13T07:59:46.677Z,21.37
2018-06-13T08:00:46.782Z,21.37
2018-06-13T08:01:46.666Z,21.39
2018-06-13T08:02:46.685Z,21.38
2018-06-13T08:03:46.726Z,21.39
2018-06-13T08:04:46.602Z,21.38
2018-06-13T08:05:46.663Z,21.38
2018-06-13T08:06:46.724Z,21.38
2018-06-13T08:07:46.704Z,21.37
2018-06-13T08:08:47.266Z,21.36
2018-06-13T08:09:46.721Z,21.36
2018-06-13T08:10:46.600Z,21.36
2018-06-13T08:11:46.891Z,21.35
2018-06-13T08:12:46.834Z,21.35
2018-06-13T08:13:56.631Z,21.34
2018-06-13T08:14:46.855Z,21.34
2018-06-13T08:15:46.692Z,21.34
2018-06-13T08:16:47.099Z,21.33
2018-06-13T08:17:46.801Z,21.33
2018-06-13T08:18:46.683Z,21.33
2018-06-13T08:19:46.921Z,21.32
2018-06-13T08:20:46.739Z,21.31
2018-06-13T08:21:46.664Z,21.31
2018-06-13T08:22:46.652Z,21.31
2018-06-13T08:23:46.741Z,21.3
2018-06-13T08:24:46.648Z,21.3
2018-06-13T08:25:46.798Z,21.3
2018-06-13T08:26:46.673Z,21.3
2018-06-13T08:27:46.635Z,21.3
2018-06-13T08:28:46.905Z,21.3
2018-06-13T08:29:46.700Z,21.3
2018-06-13T08:30:46.685Z,21.3
2018-06-13T08:31:46.802Z,21.3
2018-06-13T08:32:46.664Z,21.3
2018-06-13T08:33:47.194Z,21.3
2018-06-13T08:34:46.709Z,21.29
2018-06-13T08:35:47.049Z,21.29
2018-06-13T08:36:46.761Z,21.29
2018-06-13T08:37:46.703Z,21.29
2018-06-13T08:38:46.809Z,21.29
2018-06-13T08:39:47.262Z,21.29
2018-06-13T08:40:46.756Z,21.29
2018-06-13T08:41:46.808Z,21.28
2018-06-13T08:42:46.696Z,21.28
2018-06-13T08:43:46.761Z,21.28
2018-06-13T08:44:46.660Z,21.28
2018-06-13T08:45:46.621Z,21.28
2018-06-13T08:46:46.900Z,21.28
2018-06-13T08:47:47.018Z,21.28
2018-06-13T08:48:46.604Z,21.28
2018-06-13T08:49:46.867Z,21.28
2018-06-13T08:50:46.732Z,21.28
2018-06-13T08:51:46.783Z,21.27
2018-06-13T08:52:46.961Z,21.28
2018-06-13T08:53:46.676Z,21.27
2018-06-13T08:54:46.575Z,21.27
2018-06-13T08:55:47.048Z,21.27
2018-06-13T08:56:46.733Z,21.27
2018-06-13T08:57:46.711Z,21.27
2018-06-13T08:58:46.695Z,21.27
2018-06-13T08:59:46.843Z,21.27
2018-06-13T09:00:46.709Z,21.27
2018-06-13T09:01:46.739Z,21.27
2018-06-13T09:02:46.782Z,21.27
2018-06-13T09:03:46.737Z,21.27
2018-06-13T09:04:46.929Z,21.27
2018-06-13T09:05:46.642Z,21.26
2018-06-13T09:06:46.690Z,21.26
2018-06-13T09:07:46.698Z,21.27
2018-06-13T09:08:46.616Z,21.26
2018-06-13T09:09:46.754Z,21.27
2018-06-13T09:10:46.742Z,21.27
2018-06-13T09:11:46.811Z,21.27
2018-06-13T09:12:46.571Z,21.27
2018-06-13T09:13:46.621Z,21.27
2018-06-13T09:14:46.784Z,21.27
2018-06-13T09:15:46.635Z,21.27
2018-06-13T09:16:46.745Z,21.27
2018-06-13T09:17:46.696Z,21.27
2018-06-13T09:18:46.638Z,21.27
2018-06-13T09:19:47.093Z,21.27
2018-06-13T09:20:46.699Z,21.26
2018-06-13T09:21:46.635Z,21.27
2018-06-13T09:22:46.963Z,21.26
2018-06-13T09:23:46.924Z,21.27
2018-06-13T09:24:46.773Z,21.27
2018-06-13T09:25:46.885Z,21.27
2018-06-13T09:26:46.686Z,21.26
2018-06-13T09:27:46.611Z,21.27
2018-06-13T09:28:46.818Z,21.27
2018-06-13T09:29:46.700Z,21.27
2018-06-13T09:30:46.640Z,21.26
2018-06-13T09:31:46.990Z,21.27
2018-06-13T09:32:46.636Z,21.26
2018-06-13T09:33:46.745Z,21.26
2018-06-13T09:34:46.789Z,21.27
2018-06-13T09:35:46.665Z,21.27
2018-06-13T09:36:46.945Z,21.26
2018-06-13T09:37:46.645Z,21.26
2018-06-13T09:38:46.728Z,21.26
2018-06-13T09:39:46.574Z,21.26
2018-06-13T09:40:46.628Z,21.26
2018-06-13T09:41:46.634Z,21.26
2018-06-13T09:42:46.712Z,21.26
2018-06-13T09:43:46.663Z,21.26
2018-06-13T09:44:46.840Z,21.26
2018-06-13T09:45:46.698Z,21.26
2018-06-13T09:46:49.344Z,21.26
2018-06-13T09:47:46.606Z,21.26
2018-06-13T09:48:56.595Z,21.26
2018-06-13T09:49:46.611Z,21.26
2018-06-13T09:50:46.802Z,21.26
2018-06-13T09:51:46.736Z,21.26
2018-06-13T09:52:46.868Z,21.26
2018-06-13T09:53:46.560Z,21.26
2018-06-13T09:54:47.164Z,21.26
2018-06-13T09:55:46.727Z,21.25
2018-06-13T09:56:47.079Z,21.25
2018-06-13T09:57:46.732Z,21.26
2018-06-13T09:58:46.719Z,21.26
2018-06-13T09:59:46.778Z,21.25
2018-06-13T10:00:46.668Z,21.25
2018-06-13T10:01:47.389Z,21.25
2018-06-13T10:02:46.648Z,21.25
2018-06-13T10:03:46.824Z,21.25
2018-06-13T10:04:46.830Z,21.25
2018-06-13T10:05:46.711Z,21.25
2018-06-13T10:06:46.828Z,21.25
2018-06-13T10:07:46.818Z,21.25
2018-06-13T10:08:47.897Z,21.25
2018-06-13T10:09:46.726Z,21.25
2018-06-13T10:10:46.752Z,21.25
2018-06-13T10:11:46.774Z,21.24
2018-06-13T10:12:46.670Z,21.25
2018-06-13T10:13:46.790Z,21.25
2018-06-13T10:14:46.714Z,21.25
2018-06-13T10:15:46.736Z,21.25
2018-06-13T10:16:46.694Z,21.25
2018-06-13T10:17:46.831Z,21.24
2018-06-13T10:18:46.781Z,21.24
2018-06-13T10:19:46.754Z,21.24
2018-06-13T10:20:46.741Z,21.25
2018-06-13T10:21:46.858Z,21.25
2018-06-13T10:22:46.525Z,21.24
2018-06-13T10:23:46.662Z,21.24
2018-06-13T10:24:46.655Z,21.24
2018-06-13T10:25:46.835Z,21.24
2018-06-13T10:26:46.860Z,21.24
2018-06-13T10:27:46.639Z,21.24
2018-06-13T10:28:46.576Z,21.25
2018-06-13T10:29:46.796Z,21.24
2018-06-13T10:30:46.796Z,21.24
2018-06-13T10:31:46.611Z,21.24
2018-06-13T10:32:46.839Z,21.24
2018-06-13T10:33:46.631Z,21.24
2018-06-13T10:34:46.780Z,21.24
2018-06-13T10:35:46.733Z,21.24
2018-06-13T10:36:46.811Z,21.24
2018-06-13T10:37:46.816Z,21.24
2018-06-13T10:38:46.766Z,21.24
2018-06-13T10:39:46.712Z,21.24
2018-06-13T10:40:46.685Z,21.24
2018-06-13T10:41:46.756Z,21.24
2018-06-13T10:42:46.538Z,21.24
2018-06-13T10:43:46.732Z,21.24
2018-06-13T10:44:46.651Z,21.24
2018-06-13T10:45:46.659Z,21.24
2018-06-13T10:46:46.730Z,21.24
2018-06-13T10:47:46.748Z,21.24
2018-06-13T10:48:46.720Z,21.24
2018-06-13T10:49:46.733Z,21.24
2018-06-13T10:50:46.858Z,21.24
2018-06-13T10:51:46.763Z,21.24
2018-06-13T10:52:46.727Z,21.24
2018-06-13T10:53:46.738Z,21.24
2018-06-13T10:54:46.809Z,21.24
2018-06-13T10:55:46.581Z,21.24
2018-06-13T10:56:46.814Z,21.24
2018-06-13T10:57:46.717Z,21.24
2018-06-13T10:58:46.677Z,21.24
2018-06-13T10:59:46.796Z,21.24
2018-06-13T11:00:46.780Z,21.24
2018-06-13T11:01:47.025Z,21.24
2018-06-13T11:02:46.569Z,21.24
2018-06-13T11:03:46.663Z,21.24
2018-06-13T11:04:47.305Z,21.24
2018-06-13T11:05:46.851Z,21.24
2018-06-13T11:06:46.801Z,21.24
2018-06-13T11:07:46.494Z,21.24
2018-06-13T11:08:46.637Z,21.24
2018-06-13T11:09:46.707Z,21.24
2018-06-13T11:10:46.681Z,21.24
2018-06-13T11:11:46.938Z,21.23
2018-06-13T11:12:46.801Z,21.24
2018-06-13T11:13:46.852Z,21.24
2018-06-13T11:14:46.889Z,21.24
2018-06-13T11:15:46.667Z,21.24
2018-06-13T11:16:46.567Z,21.24
2018-06-13T11:17:46.664Z,21.23
2018-06-13T11:18:46.673Z,21.24
2018-06-13T11:19:46.796Z,21.24
2018-06-13T11:20:46.770Z,21.23
2018-06-13T11:21:46.734Z,21.23
2018-06-13T11:22:46.603Z,21.23
2018-06-13T11:23:46.830Z,21.23
2018-06-13T11:24:46.843Z,21.23
2018-06-13T11:25:46.591Z,21.23
2018-06-13T11:26:46.623Z,21.23
2018-06-13T11:27:46.708Z,21.23
2018-06-13T11:28:46.652Z,21.23
2018-06-13T11:29:46.704Z,21.23
2018-06-13T11:30:46.789Z,21.23
2018-06-13T11:31:46.570Z,21.22
2018-06-13T11:32:46.697Z,21.22
2018-06-13T11:33:46.751Z,21.22
2018-06-13T11:34:46.462Z,21.22
2018-06-13T11:35:46.685Z,21.22
2018-06-13T11:36:46.776Z,21.22
2018-06-13T11:37:46.667Z,21.22
2018-06-13T11:38:46.663Z,21.22
2018-06-13T11:39:46.759Z,21.22
2018-06-13T11:40:46.618Z,21.22
2018-06-13T11:41:46.591Z,21.22
2018-06-13T11:42:46.737Z,21.23
2018-06-13T11:43:46.558Z,21.22
2018-06-13T11:44:46.617Z,21.23
2018-06-13T11:45:46.975Z,21.22
2018-06-13T11:46:46.700Z,21.22
2018-06-13T11:47:46.751Z,21.22
2018-06-13T11:48:46.703Z,21.22
2018-06-13T11:49:46.862Z,21.22
2018-06-13T11:50:46.696Z,21.22
2018-06-13T11:51:46.981Z,21.22
2018-06-13T11:52:46.676Z,21.22
2018-06-13T11:53:46.737Z,21.22
2018-06-13T11:54:46.651Z,21.22
2018-06-13T11:55:46.704Z,21.22
2018-06-13T11:56:46.696Z,21.22
2018-06-13T11:57:46.881Z,21.22
2018-06-13T11:58:46.818Z,21.22
2018-06-13T11:59:47.027Z,21.22
2018-06-13T12:00:46.827Z,21.21
2018-06-13T12:01:46.944Z,21.21
2018-06-13T12:02:46.899Z,21.21
2018-06-13T12:03:46.733Z,21.21
2018-06-13T12:04:46.716Z,21.22
2018-06-13T12:05:46.838Z,21.21
2018-06-13T12:06:46.699Z,21.21
2018-06-13T12:07:46.726Z,21.21
2018-06-13T12:08:46.820Z,21.21
2018-06-13T12:09:46.664Z,21.21
2018-06-13T12:11:01.532Z,21.21
2018-06-13T12:11:46.797Z,21.21
2018-06-13T12:12:46.876Z,21.21
2018-06-13T12:13:46.855Z,21.21
2018-06-13T12:14:46.801Z,21.2
2018-06-13T12:15:46.703Z,21.21
2018-06-13T12:16:46.883Z,21.2
2018-06-13T12:17:46.648Z,21.2
2018-06-13T12:18:46.661Z,21.21
2018-06-13T12:19:46.801Z,21.2
2018-06-13T12:20:46.621Z,21.2
2018-06-13T12:21:46.641Z,21.2
2018-06-13T12:22:46.827Z,21.21
2018-06-13T12:23:46.877Z,21.21
2018-06-13T12:24:46.758Z,21.2
2018-06-13T12:25:46.884Z,21.21
2018-06-13T12:26:46.631Z,21.2
2018-06-13T12:27:46.677Z,21.21
2018-06-13T12:28:46.773Z,21.2
2018-06-13T12:29:46.684Z,21.2
2018-06-13T12:30:46.848Z,21.2
2018-06-13T12:31:46.566Z,21.2
2018-06-13T12:32:46.700Z,21.2
2018-06-13T12:33:46.687Z,21.2
2018-06-13T12:34:46.696Z,21.2
2018-06-13T12:35:46.805Z,21.2
2018-06-13T12:36:46.606Z,21.2
2018-06-13T12:37:46.663Z,21.2
2018-06-13T12:38:46.765Z,21.2
2018-06-13T12:39:46.684Z,21.2
2018-06-13T12:40:46.744Z,21.2
2018-06-13T12:41:46.656Z,21.2
2018-06-13T12:42:46.692Z,21.19
2018-06-13T12:43:46.661Z,21.2
2018-06-13T12:44:46.682Z,21.2
2018-06-13T12:45:46.612Z,21.19
2018-06-13T12:46:46.565Z,21.19
2018-06-13T12:47:46.636Z,21.19
2018-06-13T12:48:46.681Z,21.19
2018-06-13T12:49:46.691Z,21.21
2018-06-13T12:50:46.920Z,21.21
2018-06-13T12:51:46.660Z,21.22
2018-06-13T12:52:48.416Z,21.24
2018-06-13T12:53:46.921Z,21.24
2018-06-13T12:54:46.566Z,21.24